createdAt,value
2017-12-17T00:00:58.379Z,34.12
2017-12-17T00:01:58.337Z,29.10
2017-12-17T00:02:58.293Z,24.74
2017-12-17T00:03:58.313Z,29.86
2017-12-17T00:04:58.218Z,28.81
2017-12-17T00:05:58.193Z,32.42
2017-12-17T00:06:58.116Z,26.45
2017-12-17T00:07:58.071Z,33.46
2017-12-17T00:08:58.045Z,32.42
2017-12-17T00:09:58.030Z,29.48
2017-12-17T00:10:57.971Z,29.38
2017-12-17T00:11:57.906Z,32.79
2017-12-17T00:12:57.857Z,32.42
2017-12-17T00:13:57.821Z,33.37
2017-12-17T00:14:57.809Z,32.32
2017-12-17T00:15:57.747Z,38.96
2017-12-17T00:16:57.699Z,38.96
2017-12-17T00:17:57.660Z,34.50
2017-12-17T00:18:57.611Z,29.00
2017-12-17T00:19:57.569Z,31.66
2017-12-17T00:20:57.522Z,36.87
2017-12-17T00:21:57.499Z,35.55
2017-12-17T00:22:57.524Z,33.75
2017-12-17T00:23:57.424Z,33.17
2017-12-17T00:24:57.386Z,38.86
2017-12-17T00:25:57.320Z,37.54
2017-12-17T00:26:57.284Z,39.15
2017-12-17T00:27:57.232Z,32.60
2017-12-17T00:28:57.188Z,38.67
2017-12-17T00:29:57.148Z,37.73
2017-12-17T00:30:57.108Z,39.15
2017-12-17T00:31:57.066Z,36.68
2017-12-17T00:32:57.022Z,36.78
2017-12-17T00:33:56.980Z,36.87
2017-12-17T00:34:56.941Z,38.20
2017-12-17T00:35:56.919Z,33.56
2017-12-17T00:36:56.854Z,34.41
2017-12-17T00:37:56.817Z,38.67
2017-12-17T00:38:56.788Z,33.75
2017-12-17T00:39:56.738Z,37.63
2017-12-17T00:40:56.692Z,39.15
2017-12-17T00:41:56.667Z,33.37
2017-12-17T00:42:56.609Z,36.11
2017-12-17T00:43:56.587Z,35.74
2017-12-17T00:44:56.523Z,36.68
2017-12-17T00:45:56.483Z,34.98
2017-12-17T00:46:56.440Z,32.14
2017-12-17T00:47:56.401Z,31.56
2017-12-17T00:48:56.355Z,24.93
2017-12-17T00:49:56.323Z,28.53
2017-12-17T00:50:56.275Z,27.20
2017-12-17T00:51:56.274Z,26.07
2017-12-17T00:52:56.204Z,24.46
2017-12-17T00:53:56.158Z,23.32
2017-12-17T00:54:56.116Z,24.84
2017-12-17T00:55:56.065Z,22.75
2017-12-17T00:56:56.029Z,23.03
2017-12-17T00:57:55.989Z,25.68
2017-12-17T00:58:56.620Z,24.55
2017-12-17T00:59:55.914Z,22.37
2017-12-17T01:00:55.875Z,20.85
2017-12-17T01:01:55.810Z,23.22
2017-12-17T01:02:55.773Z,23.69
2017-12-17T01:03:55.730Z,25.21
2017-12-17T01:04:55.691Z,22.94
2017-12-17T01:05:55.646Z,26.54
2017-12-17T01:06:55.609Z,29.29
2017-12-17T01:07:55.566Z,23.88
2017-12-17T01:08:55.520Z,23.32
2017-12-17T01:09:55.522Z,21.70
2017-12-17T01:10:55.439Z,23.41
2017-12-17T01:11:55.401Z,23.22
2017-12-17T01:12:55.357Z,25.12
2017-12-17T01:13:55.317Z,24.36
2017-12-17T01:14:55.269Z,24.84
2017-12-17T01:15:55.229Z,24.07
2017-12-17T01:16:55.186Z,24.27
2017-12-17T01:17:55.149Z,24.93
2017-12-17T01:18:55.104Z,27.68
2017-12-17T01:19:55.062Z,22.75
2017-12-17T01:20:55.019Z,21.33
2017-12-17T01:21:54.982Z,20.76
2017-12-17T01:22:54.936Z,26.73
2017-12-17T01:23:54.899Z,23.41
2017-12-17T01:24:54.853Z,29.00
2017-12-17T01:25:54.811Z,24.84
2017-12-17T01:26:54.775Z,27.49
2017-12-17T01:27:54.753Z,23.22
2017-12-17T01:28:54.686Z,25.02
2017-12-17T01:29:54.652Z,24.93
2017-12-17T01:30:54.603Z,25.31
2017-12-17T01:31:54.564Z,22.46
2017-12-17T01:32:54.528Z,24.74
2017-12-17T01:33:54.483Z,20.28
2017-12-17T01:34:54.441Z,21.99
2017-12-17T01:35:54.397Z,24.93
2017-12-17T01:36:54.354Z,25.59
2017-12-17T01:37:54.435Z,25.02
2017-12-17T01:38:54.269Z,27.58
2017-12-17T01:39:54.238Z,25.02
2017-12-17T01:40:54.188Z,22.46
2017-12-17T01:41:54.143Z,20.47
2017-12-17T01:42:54.101Z,20.09
2017-12-17T01:43:54.080Z,20.00
2017-12-17T01:44:54.028Z,21.89
2017-12-17T01:45:53.981Z,22.75
2017-12-17T01:46:53.940Z,23.98
2017-12-17T01:47:53.895Z,21.51
2017-12-17T01:48:53.855Z,23.88
2017-12-17T01:49:53.809Z,25.21
2017-12-17T01:50:53.775Z,22.75
2017-12-17T01:51:53.738Z,20.66
2017-12-17T01:52:53.701Z,21.04
2017-12-17T01:53:53.651Z,23.78
2017-12-17T01:54:53.602Z,25.12
2017-12-17T01:55:53.561Z,21.23
2017-12-17T01:56:53.523Z,22.85
2017-12-17T01:57:53.479Z,23.87
2017-12-17T01:58:53.438Z,23.13
2017-12-17T01:59:53.397Z,19.05
2017-12-17T02:00:53.354Z,18.20
2017-12-17T02:01:53.312Z,21.14
2017-12-17T02:02:53.270Z,26.26
2017-12-17T02:03:53.231Z,24.93
2017-12-17T02:04:53.186Z,20.28
2017-12-17T02:05:53.146Z,20.38
2017-12-17T02:06:53.104Z,20.28
2017-12-17T02:07:53.063Z,23.03
2017-12-17T02:08:53.031Z,25.12
2017-12-17T02:09:52.978Z,23.88
2017-12-17T02:10:52.940Z,22.18
2017-12-17T02:11:52.898Z,18.96
2017-12-17T02:12:52.855Z,22.46
2017-12-17T02:13:52.811Z,21.14
2017-12-17T02:14:52.772Z,22.75
2017-12-17T02:15:52.731Z,23.13
2017-12-17T02:16:52.688Z,17.35
2017-12-17T02:17:52.646Z,20.28
2017-12-17T02:18:52.744Z,16.97
2017-12-17T02:19:52.563Z,17.63
2017-12-17T02:20:52.523Z,20.38
2017-12-17T02:21:52.479Z,18.10
2017-12-17T02:22:52.437Z,17.35
2017-12-17T02:23:52.396Z,14.50
2017-12-17T02:24:52.355Z,16.11
2017-12-17T02:25:52.320Z,15.07
2017-12-17T02:26:52.274Z,16.49
2017-12-17T02:27:52.234Z,17.91
2017-12-17T02:28:52.196Z,18.20
2017-12-17T02:29:52.147Z,20.57
2017-12-17T02:30:52.120Z,20.28
2017-12-17T02:31:52.064Z,17.91
2017-12-17T02:32:52.036Z,18.29
2017-12-17T02:33:51.982Z,21.23
2017-12-17T02:34:51.953Z,19.24
2017-12-17T02:35:51.924Z,15.07
2017-12-17T02:36:51.860Z,18.10
2017-12-17T02:37:51.832Z,19.24
2017-12-17T02:38:51.787Z,23.13
2017-12-17T02:39:51.745Z,21.14
2017-12-17T02:40:51.695Z,20.09
2017-12-17T02:41:51.646Z,20.09
2017-12-17T02:42:51.606Z,19.90
2017-12-17T02:43:51.564Z,16.39
2017-12-17T02:44:51.529Z,16.39
2017-12-17T02:45:51.482Z,18.86
2017-12-17T02:46:51.440Z,20.47
2017-12-17T02:47:51.398Z,19.71
2017-12-17T02:48:51.359Z,18.10
2017-12-17T02:49:51.316Z,20.47
2017-12-17T02:50:51.281Z,20.47
2017-12-17T02:51:51.239Z,20.85
2017-12-17T02:52:51.187Z,20.95
2017-12-17T02:53:51.154Z,18.96
2017-12-17T02:54:51.113Z,22.27
2017-12-17T02:55:51.071Z,17.44
2017-12-17T02:56:51.050Z,25.31
2017-12-17T02:57:50.979Z,23.32
2017-12-17T02:58:50.948Z,28.15
2017-12-17T02:59:50.918Z,27.01
2017-12-17T03:00:50.868Z,20.84
2017-12-17T03:01:50.900Z,17.05
2017-12-17T03:02:50.832Z,16.96
2017-12-17T03:03:50.729Z,12.23
2017-12-17T03:04:50.736Z,17.62
2017-12-17T03:05:50.692Z,22.55
2017-12-17T03:06:50.657Z,22.45
2017-12-17T03:07:50.630Z,18.29
2017-12-17T03:08:50.585Z,11.08
2017-12-17T03:09:50.546Z,12.41
2017-12-17T03:10:50.473Z,11.74
2017-12-17T03:11:50.454Z,9.00
2017-12-17T03:12:50.392Z,5.30
2017-12-17T03:13:50.375Z,1.61
2017-12-17T03:14:50.335Z,9.94
2017-12-17T03:15:50.277Z,9.47
2017-12-17T03:16:50.243Z,6.63
2017-12-17T03:17:50.187Z,8.91
2017-12-17T03:18:50.169Z,4.93
2017-12-17T03:19:50.108Z,4.73
2017-12-17T03:20:50.077Z,4.17
2017-12-17T03:21:50.041Z,2.27
2017-12-17T03:22:49.992Z,4.07
2017-12-17T03:23:49.934Z,3.03
2017-12-17T03:24:49.897Z,2.65
2017-12-17T03:25:49.862Z,0.00
2017-12-17T03:26:49.843Z,0.00
2017-12-17T03:27:49.795Z,0.00
2017-12-17T03:28:49.729Z,0.00
2017-12-17T03:29:49.674Z,0.00
2017-12-17T03:30:49.643Z,0.00
2017-12-17T03:31:49.620Z,0.00
2017-12-17T03:32:49.568Z,0.00
2017-12-17T03:33:49.513Z,1.51
2017-12-17T03:34:49.489Z,0.00
2017-12-17T03:35:49.425Z,0.00
2017-12-17T03:36:49.401Z,0.00
2017-12-17T03:37:49.380Z,0.00
2017-12-17T03:38:49.314Z,0.00
2017-12-17T03:39:49.288Z,1.23
2017-12-17T03:40:49.208Z,0.00
2017-12-17T03:41:49.193Z,0.00
2017-12-17T03:42:49.172Z,0.00
2017-12-17T03:43:49.046Z,0.00
2017-12-17T03:44:49.005Z,0.00
2017-12-17T03:45:48.972Z,0.66
2017-12-17T03:46:48.916Z,0.00
2017-12-17T03:47:48.877Z,0.00
2017-12-17T03:48:48.834Z,0.00
2017-12-17T03:49:48.793Z,2.94
2017-12-17T03:50:48.749Z,2.27
2017-12-17T03:51:48.708Z,1.51
2017-12-17T03:52:48.666Z,3.78
2017-12-17T03:53:48.632Z,1.79
2017-12-17T03:54:48.581Z,1.42
2017-12-17T03:55:48.538Z,2.65
2017-12-17T03:56:48.495Z,3.78
2017-12-17T03:57:48.452Z,2.18
2017-12-17T03:58:48.410Z,0.00
2017-12-17T03:59:48.370Z,5.02
2017-12-17T04:00:48.324Z,3.03
2017-12-17T04:01:48.284Z,0.00
2017-12-17T04:02:48.245Z,4.93
2017-12-17T04:03:48.201Z,1.42
2017-12-17T04:04:48.155Z,0.00
2017-12-17T04:05:48.115Z,3.97
2017-12-17T04:06:48.080Z,8.43
2017-12-17T04:07:48.029Z,3.59
2017-12-17T04:08:47.987Z,8.72
2017-12-17T04:09:47.944Z,13.64
2017-12-17T04:10:47.902Z,13.83
2017-12-17T04:11:47.860Z,9.85
2017-12-17T04:12:47.820Z,15.06
2017-12-17T04:13:47.792Z,18.00
2017-12-17T04:14:47.742Z,15.25
2017-12-17T04:15:47.693Z,20.65
2017-12-17T04:16:47.651Z,19.23
2017-12-17T04:17:47.612Z,16.85
2017-12-17T04:18:47.568Z,20.73
2017-12-17T04:19:47.522Z,23.40
2017-12-17T04:20:47.484Z,17.04
2017-12-17T04:21:47.450Z,18.95
2017-12-17T04:22:47.398Z,16.39
2017-12-17T04:23:47.352Z,20.64
2017-12-17T04:24:47.309Z,15.53
2017-12-17T04:25:47.264Z,14.59
2017-12-17T04:26:47.222Z,19.32
2017-12-17T04:27:47.184Z,20.65
2017-12-17T04:28:47.140Z,16.58
2017-12-17T04:29:47.097Z,16.49
2017-12-17T04:30:47.056Z,13.17
2017-12-17T04:31:47.012Z,14.11
2017-12-17T04:32:46.969Z,17.14
2017-12-17T04:33:46.927Z,13.64
2017-12-17T04:34:46.885Z,15.15
2017-12-17T04:35:46.843Z,11.83
2017-12-17T04:36:46.812Z,7.48
2017-12-17T04:37:46.758Z,7.20
2017-12-17T04:38:46.717Z,11.08
2017-12-17T04:39:46.677Z,12.21
2017-12-17T04:40:46.632Z,10.79
2017-12-17T04:41:46.590Z,13.07
2017-12-17T04:42:46.554Z,12.97
2017-12-17T04:43:46.504Z,11.74
2017-12-17T04:44:46.461Z,6.44
2017-12-17T04:45:46.420Z,8.90
2017-12-17T04:46:46.384Z,13.92
2017-12-17T04:47:46.335Z,8.61
2017-12-17T04:48:46.292Z,12.97
2017-12-17T04:49:46.249Z,12.02
2017-12-17T04:50:46.214Z,7.57
2017-12-17T04:51:46.168Z,8.04
2017-12-17T04:52:46.134Z,8.99
2017-12-17T04:53:46.080Z,4.83
2017-12-17T04:54:46.039Z,8.90
2017-12-17T04:55:45.997Z,5.96
2017-12-17T04:56:45.953Z,12.02
2017-12-17T04:57:45.910Z,5.68
2017-12-17T04:58:45.871Z,8.90
2017-12-17T04:59:45.832Z,9.19
2017-12-17T05:00:45.784Z,9.47
2017-12-17T05:01:45.744Z,7.39
2017-12-17T05:02:45.700Z,8.33
2017-12-17T05:03:45.659Z,8.71
2017-12-17T05:04:45.611Z,4.64
2017-12-17T05:05:45.572Z,3.31
2017-12-17T05:06:45.529Z,0.57
2017-12-17T05:07:45.490Z,4.83
2017-12-17T05:08:45.443Z,7.48
2017-12-17T05:09:45.401Z,13.54
2017-12-17T05:10:45.361Z,8.71
2017-12-17T05:11:45.317Z,1.89
2017-12-17T05:12:45.275Z,1.14
2017-12-17T05:13:45.231Z,3.59
2017-12-17T05:14:45.191Z,2.36
2017-12-17T05:15:45.149Z,3.22
2017-12-17T05:16:45.106Z,1.42
2017-12-17T05:17:45.064Z,4.92
2017-12-17T05:18:45.034Z,7.95
2017-12-17T05:19:44.975Z,5.68
2017-12-17T05:20:44.935Z,4.35
2017-12-17T05:21:44.893Z,0.38
2017-12-17T05:22:44.851Z,4.16
2017-12-17T05:23:44.810Z,5.02
2017-12-17T05:24:44.770Z,8.52
2017-12-17T05:25:44.726Z,8.90
2017-12-17T05:26:44.684Z,8.61
2017-12-17T05:27:44.637Z,5.77
2017-12-17T05:28:44.597Z,2.08
2017-12-17T05:29:44.551Z,5.11
2017-12-17T05:30:44.519Z,6.44
2017-12-17T05:31:44.467Z,7.76
2017-12-17T05:32:44.432Z,7.67
2017-12-17T05:33:44.383Z,8.33
2017-12-17T05:34:44.350Z,5.87
2017-12-17T05:35:44.298Z,3.03
2017-12-17T05:36:44.266Z,4.83
2017-12-17T05:37:44.227Z,4.73
2017-12-17T05:38:44.173Z,4.07
2017-12-17T05:39:44.169Z,2.84
2017-12-17T05:40:44.096Z,4.64
2017-12-17T05:41:44.099Z,4.64
2017-12-17T05:42:44.006Z,0.00
2017-12-17T05:43:43.961Z,4.26
2017-12-17T05:44:43.915Z,7.48
2017-12-17T05:45:43.871Z,5.87
2017-12-17T05:46:43.830Z,0.57
2017-12-17T05:47:43.793Z,3.03
2017-12-17T05:48:43.745Z,6.15
2017-12-17T05:49:43.701Z,7.39
2017-12-17T05:50:43.665Z,6.34
2017-12-17T05:51:43.629Z,3.13
2017-12-17T05:52:43.608Z,7.29
2017-12-17T05:53:43.536Z,4.92
2017-12-17T05:54:44.475Z,1.70
2017-12-17T05:55:43.496Z,5.58
2017-12-17T05:56:43.401Z,3.69
2017-12-17T05:57:43.358Z,1.42
2017-12-17T05:58:43.320Z,4.92
2017-12-17T05:59:43.289Z,5.58
2017-12-17T06:00:43.231Z,3.59
2017-12-17T06:01:43.196Z,5.49
2017-12-17T06:02:43.148Z,4.07
2017-12-17T06:03:43.110Z,7.39
2017-12-17T06:04:43.072Z,6.72
2017-12-17T06:05:43.022Z,9.75
2017-12-17T06:06:42.980Z,6.06
2017-12-17T06:07:42.937Z,8.80
2017-12-17T06:08:42.893Z,4.26
2017-12-17T06:09:42.852Z,9.66
2017-12-17T06:10:42.808Z,7.39
2017-12-17T06:11:42.768Z,11.36
2017-12-17T06:12:42.729Z,11.83
2017-12-17T06:13:42.678Z,13.16
2017-12-17T06:14:42.640Z,14.77
2017-12-17T06:15:42.599Z,12.21
2017-12-17T06:16:42.559Z,16.00
2017-12-17T06:17:42.509Z,12.21
2017-12-17T06:18:42.468Z,13.35
2017-12-17T06:19:42.424Z,12.40
2017-12-17T06:20:42.383Z,9.19
2017-12-17T06:21:42.348Z,14.48
2017-12-17T06:22:42.308Z,17.71
2017-12-17T06:23:42.254Z,20.45
2017-12-17T06:24:42.212Z,16.09
2017-12-17T06:25:42.169Z,13.26
2017-12-17T06:26:42.127Z,15.81
2017-12-17T06:27:42.083Z,15.44
2017-12-17T06:28:42.040Z,12.40
2017-12-17T06:29:41.999Z,16.38
2017-12-17T06:30:41.954Z,17.23
2017-12-17T06:31:41.913Z,13.45
2017-12-17T06:32:41.871Z,15.53
2017-12-17T06:33:41.845Z,12.02
2017-12-17T06:34:41.791Z,9.09
2017-12-17T06:35:41.743Z,13.16
2017-12-17T06:36:41.700Z,9.47
2017-12-17T06:37:41.659Z,10.03
2017-12-17T06:38:41.619Z,14.20
2017-12-17T06:39:41.575Z,15.05
2017-12-17T06:40:41.543Z,25.00
2017-12-17T06:41:41.509Z,23.86
2017-12-17T06:42:41.448Z,19.60
2017-12-17T06:43:41.405Z,22.44
2017-12-17T06:44:41.360Z,20.73
2017-12-17T06:45:41.316Z,20.73
2017-12-17T06:46:41.287Z,18.46
2017-12-17T06:47:41.251Z,15.05
2017-12-17T06:48:41.200Z,13.92
2017-12-17T06:49:41.225Z,17.23
2017-12-17T06:50:41.115Z,20.07
2017-12-17T06:51:41.064Z,15.44
2017-12-17T06:52:41.021Z,17.90
2017-12-17T06:53:40.986Z,23.67
2017-12-17T06:54:40.954Z,25.00
2017-12-17T06:55:40.894Z,28.22
2017-12-17T06:56:40.851Z,23.96
2017-12-17T06:57:40.807Z,21.11
2017-12-17T06:58:40.767Z,23.67
2017-12-17T06:59:40.724Z,22.06
2017-12-17T07:00:40.688Z,23.10
2017-12-17T07:01:40.646Z,21.69
2017-12-17T07:02:40.597Z,21.40
2017-12-17T07:03:40.556Z,20.45
2017-12-17T07:04:40.511Z,23.01
2017-12-17T07:05:40.473Z,21.59
2017-12-17T07:06:40.424Z,17.80
2017-12-17T07:07:40.392Z,23.86
2017-12-17T07:08:40.345Z,23.86
2017-12-17T07:09:40.303Z,23.10
2017-12-17T07:10:40.290Z,17.23
2017-12-17T07:11:40.215Z,21.69
2017-12-17T07:12:40.178Z,21.11
2017-12-17T07:13:40.130Z,20.64
2017-12-17T07:14:40.090Z,23.48
2017-12-17T07:15:40.045Z,29.73
2017-12-17T07:16:40.002Z,28.88
2017-12-17T07:17:39.957Z,23.01
2017-12-17T07:18:39.917Z,30.40
2017-12-17T07:19:39.876Z,29.64
2017-12-17T07:20:39.834Z,28.59
2017-12-17T07:21:39.785Z,25.28
2017-12-17T07:22:39.743Z,24.71
2017-12-17T07:23:39.705Z,34.47
2017-12-17T07:24:39.660Z,28.69
2017-12-17T07:25:39.625Z,30.77
2017-12-17T07:26:39.581Z,26.89
2017-12-17T07:27:39.533Z,29.45
2017-12-17T07:28:39.492Z,28.69
2017-12-17T07:29:39.448Z,29.54
2017-12-17T07:30:39.413Z,31.15
2017-12-17T07:31:39.365Z,31.82
2017-12-17T07:32:39.322Z,29.83
2017-12-17T07:33:39.278Z,29.35
2017-12-17T07:34:39.249Z,28.78
2017-12-17T07:35:39.235Z,28.69
2017-12-17T07:36:39.150Z,29.26
2017-12-17T07:37:39.111Z,29.73
2017-12-17T07:38:39.137Z,29.83
2017-12-17T07:39:39.018Z,29.26
2017-12-17T07:40:38.981Z,27.65
2017-12-17T07:41:38.938Z,23.96
2017-12-17T07:42:38.896Z,23.86
2017-12-17T07:43:38.857Z,28.88
2017-12-17T07:44:38.823Z,29.64
2017-12-17T07:45:38.767Z,28.88
2017-12-17T07:46:38.724Z,26.23
2017-12-17T07:47:38.681Z,28.31
2017-12-17T07:48:38.638Z,27.84
2017-12-17T07:49:38.598Z,29.26
2017-12-17T07:50:38.560Z,27.27
2017-12-17T07:51:38.532Z,25.19
2017-12-17T07:52:38.470Z,23.29
2017-12-17T07:53:38.431Z,15.72
2017-12-17T07:54:38.391Z,17.90
2017-12-17T07:55:38.344Z,11.36
2017-12-17T07:56:38.301Z,12.31
2017-12-17T07:57:38.257Z,10.51
2017-12-17T07:58:38.217Z,12.88
2017-12-17T07:59:38.176Z,12.02
2017-12-17T08:00:38.131Z,7.29
2017-12-17T08:01:38.090Z,8.52
2017-12-17T08:02:38.048Z,7.01
2017-12-17T08:03:38.000Z,8.71
2017-12-17T08:04:37.968Z,7.01
2017-12-17T08:05:37.932Z,8.33
2017-12-17T08:06:37.887Z,7.10
2017-12-17T08:07:37.847Z,4.73
2017-12-17T08:08:37.823Z,7.39
2017-12-17T08:09:37.767Z,9.19
2017-12-17T08:10:37.710Z,15.05
2017-12-17T08:11:37.667Z,12.59
2017-12-17T08:12:37.629Z,9.19
2017-12-17T08:13:37.578Z,7.10
2017-12-17T08:14:37.585Z,8.23
2017-12-17T08:15:37.501Z,11.17
2017-12-17T08:16:37.460Z,12.97
2017-12-17T08:17:37.434Z,19.22
2017-12-17T08:18:37.443Z,20.64
2017-12-17T08:19:37.332Z,9.47
2017-12-17T08:20:37.279Z,8.71
2017-12-17T08:21:37.302Z,14.11
2017-12-17T08:22:37.195Z,23.29
2017-12-17T08:23:37.175Z,19.22
2017-12-17T08:24:37.111Z,18.84
2017-12-17T08:25:37.068Z,16.76
2017-12-17T08:26:37.036Z,17.42
2017-12-17T08:27:36.985Z,16.19
2017-12-17T08:28:36.943Z,21.69
2017-12-17T08:29:36.898Z,16.47
2017-12-17T08:30:36.864Z,15.91
2017-12-17T08:31:36.812Z,18.56
2017-12-17T08:32:36.779Z,16.00
2017-12-17T08:33:36.733Z,21.21
2017-12-17T08:34:36.684Z,23.01
2017-12-17T08:35:36.648Z,16.28
2017-12-17T08:36:36.608Z,9.28
2017-12-17T08:37:36.556Z,23.77
2017-12-17T08:38:36.514Z,19.89
2017-12-17T08:39:36.478Z,13.54
2017-12-17T08:40:36.429Z,13.45
2017-12-17T08:41:36.388Z,18.65
2017-12-17T08:42:36.345Z,18.08
2017-12-17T08:43:36.298Z,25.95
2017-12-17T08:44:36.259Z,21.69
2017-12-17T08:45:36.219Z,20.26
2017-12-17T08:46:36.179Z,22.53
2017-12-17T08:47:36.132Z,30.77
2017-12-17T08:48:36.089Z,25.19
2017-12-17T08:49:36.047Z,26.32
2017-12-17T08:50:36.006Z,17.61
2017-12-17T08:51:35.971Z,20.07
2017-12-17T08:52:35.921Z,20.47
2017-12-17T08:53:35.878Z,34.47
2017-12-17T08:54:35.836Z,31.25
2017-12-17T08:55:35.794Z,21.59
2017-12-17T08:56:35.759Z,26.89
2017-12-17T08:57:35.711Z,32.57
2017-12-17T08:58:35.666Z,28.41
2017-12-17T08:59:35.641Z,28.59
2017-12-17T09:00:35.583Z,28.03
2017-12-17T09:01:35.550Z,26.79
2017-12-17T09:02:35.499Z,27.08
2017-12-17T09:03:35.468Z,29.26
2017-12-17T09:04:35.427Z,28.97
2017-12-17T09:05:35.373Z,21.69
2017-12-17T09:06:35.333Z,21.78
2017-12-17T09:07:35.291Z,32.01
2017-12-17T09:08:35.250Z,23.86
2017-12-17T09:09:35.201Z,32.48
2017-12-17T09:10:35.164Z,34.19
2017-12-17T09:11:35.122Z,27.84
2017-12-17T09:12:35.078Z,33.14
2017-12-17T09:13:35.036Z,25.28
2017-12-17T09:14:35.011Z,32.01
2017-12-17T09:15:34.958Z,27.46
2017-12-17T09:16:34.911Z,21.78
2017-12-17T09:17:34.874Z,28.22
2017-12-17T09:18:34.828Z,25.76
2017-12-17T09:19:34.784Z,23.77
2017-12-17T09:20:34.743Z,20.07
2017-12-17T09:21:34.707Z,18.65
2017-12-17T09:22:34.665Z,12.12
2017-12-17T09:23:34.618Z,19.22
2017-12-17T09:24:34.570Z,17.04
2017-12-17T09:25:34.534Z,11.74
2017-12-17T09:26:34.487Z,13.64
2017-12-17T09:27:34.446Z,13.07
2017-12-17T09:28:34.401Z,14.77
2017-12-17T09:29:34.378Z,12.02
2017-12-17T09:30:34.320Z,6.53
2017-12-17T09:31:34.279Z,8.33
2017-12-17T09:32:34.236Z,3.88
2017-12-17T09:33:34.192Z,4.26
2017-12-17T09:34:34.154Z,8.71
2017-12-17T09:35:34.124Z,12.12
2017-12-17T09:36:34.067Z,7.57
2017-12-17T09:37:34.030Z,6.43
2017-12-17T09:38:33.983Z,3.03
2017-12-17T09:39:33.953Z,0.19
2017-12-17T09:40:33.954Z,0.00
2017-12-17T09:41:33.854Z,0.00
2017-12-17T09:42:33.813Z,0.00
2017-12-17T09:43:33.774Z,0.00
2017-12-17T09:44:33.737Z,3.41
2017-12-17T09:45:33.693Z,2.93
2017-12-17T09:46:33.762Z,2.27
2017-12-17T09:47:33.619Z,3.22
2017-12-17T09:48:33.557Z,2.55
2017-12-17T09:49:33.513Z,0.00
2017-12-17T09:50:33.476Z,1.04
2017-12-17T09:51:33.447Z,0.76
2017-12-17T09:52:33.393Z,1.70
2017-12-17T09:53:33.351Z,0.00
2017-12-17T09:54:33.306Z,0.00
2017-12-17T09:55:33.283Z,1.79
2017-12-17T09:56:33.222Z,2.08
2017-12-17T09:57:33.177Z,2.08
2017-12-17T09:58:33.135Z,0.00
2017-12-17T09:59:33.096Z,2.17
2017-12-17T10:00:33.050Z,2.46
2017-12-17T10:01:33.009Z,0.76
2017-12-17T10:02:32.965Z,0.00
2017-12-17T10:03:32.937Z,0.00
2017-12-17T10:04:32.877Z,0.00
2017-12-17T10:05:32.838Z,0.00
2017-12-17T10:06:32.801Z,0.00
2017-12-17T10:07:32.750Z,0.00
2017-12-17T10:08:32.708Z,0.00
2017-12-17T10:09:32.665Z,0.00
2017-12-17T10:10:32.619Z,2.27
2017-12-17T10:11:32.586Z,0.00
2017-12-17T10:12:32.538Z,3.78
2017-12-17T10:13:32.495Z,3.22
2017-12-17T10:14:32.453Z,3.50
2017-12-17T10:15:32.408Z,7.48
2017-12-17T10:16:32.381Z,8.99
2017-12-17T10:17:32.324Z,7.57
2017-12-17T10:18:32.286Z,7.76
2017-12-17T10:19:32.258Z,12.59
2017-12-17T10:20:32.206Z,9.66
2017-12-17T10:21:32.164Z,12.02
2017-12-17T10:22:32.114Z,15.81
2017-12-17T10:23:32.073Z,17.90
2017-12-17T10:24:32.053Z,12.97
2017-12-17T10:25:31.988Z,21.88
2017-12-17T10:26:31.942Z,23.67
2017-12-17T10:27:31.916Z,21.88
2017-12-17T10:28:31.866Z,14.01
2017-12-17T10:29:31.825Z,19.32
2017-12-17T10:30:31.777Z,26.32
2017-12-17T10:31:31.735Z,21.97
2017-12-17T10:32:31.693Z,17.80
2017-12-17T10:33:31.659Z,15.25
2017-12-17T10:34:31.611Z,16.38
2017-12-17T10:35:31.608Z,15.72
2017-12-17T10:36:31.535Z,22.25
2017-12-17T10:37:31.495Z,25.00
2017-12-17T10:38:31.485Z,23.10
2017-12-17T10:39:31.402Z,25.28
2017-12-17T10:40:31.403Z,18.84
2017-12-17T10:41:31.314Z,14.86
2017-12-17T10:42:31.273Z,25.28
2017-12-17T10:43:31.255Z,25.00
2017-12-17T10:44:31.190Z,26.14
2017-12-17T10:45:31.144Z,27.94
2017-12-17T10:46:31.124Z,23.48
2017-12-17T10:47:31.063Z,22.25
2017-12-17T10:48:31.021Z,23.86
2017-12-17T10:49:30.988Z,20.64
2017-12-17T10:50:31.061Z,21.02
2017-12-17T10:51:30.901Z,25.19
2017-12-17T10:52:30.858Z,27.27
2017-12-17T10:53:30.810Z,26.61
2017-12-17T10:54:30.767Z,20.36
2017-12-17T10:55:30.724Z,30.68
2017-12-17T10:56:30.681Z,23.39
2017-12-17T10:57:30.636Z,28.50
2017-12-17T10:58:30.600Z,23.77
2017-12-17T10:59:30.553Z,28.97
2017-12-17T11:00:30.509Z,25.76
2017-12-17T11:01:30.468Z,31.63
2017-12-17T11:02:30.427Z,25.19
2017-12-17T11:03:30.398Z,28.22
2017-12-17T11:04:30.347Z,25.39
2017-12-17T11:05:30.307Z,28.80
2017-12-17T11:06:30.257Z,37.33
2017-12-17T11:07:30.212Z,35.72
2017-12-17T11:08:30.195Z,31.64
2017-12-17T11:09:30.129Z,40.72
2017-12-17T11:10:30.093Z,32.39
2017-12-17T11:11:30.055Z,38.82
2017-12-17T11:12:30.034Z,32.76
2017-12-17T11:13:29.962Z,38.54
2017-12-17T11:14:29.926Z,32.39
2017-12-17T11:15:29.875Z,40.15
2017-12-17T11:16:29.836Z,33.14
2017-12-17T11:17:29.798Z,39.58
2017-12-17T11:18:29.763Z,36.74
2017-12-17T11:19:29.721Z,40.63
2017-12-17T11:20:29.677Z,33.62
2017-12-17T11:21:29.629Z,43.75
2017-12-17T11:22:29.594Z,39.29
2017-12-17T11:23:29.542Z,40.25
2017-12-17T11:24:29.513Z,43.75
2017-12-17T11:25:29.458Z,50.09
2017-12-17T11:26:29.413Z,46.40
2017-12-17T11:27:29.419Z,46.31
2017-12-17T11:28:29.327Z,42.43
2017-12-17T11:29:29.289Z,38.82
2017-12-17T11:30:29.247Z,41.19
2017-12-17T11:31:29.212Z,46.78
2017-12-17T11:32:29.165Z,49.43
2017-12-17T11:33:29.120Z,47.16
2017-12-17T11:34:29.078Z,44.89
2017-12-17T11:35:29.046Z,44.51
2017-12-17T11:36:28.998Z,45.64
2017-12-17T11:37:28.966Z,48.68
2017-12-17T11:38:28.911Z,51.61
2017-12-17T11:39:28.872Z,49.43
2017-12-17T11:40:28.824Z,45.26
2017-12-17T11:41:28.795Z,50.66
2017-12-17T11:42:28.740Z,52.75
2017-12-17T11:43:28.701Z,48.29
2017-12-17T11:44:28.665Z,52.37
2017-12-17T11:45:28.721Z,43.94
2017-12-17T11:46:28.636Z,52.18
2017-12-17T11:47:28.538Z,51.99
2017-12-17T11:48:28.487Z,58.24
2017-12-17T11:49:28.444Z,53.69
2017-12-17T11:50:28.425Z,52.75
2017-12-17T11:51:28.405Z,49.90
2017-12-17T11:52:28.314Z,50.09
2017-12-17T11:53:28.291Z,48.68
2017-12-17T11:54:28.263Z,51.80
2017-12-17T11:55:28.216Z,49.24
2017-12-17T11:56:28.157Z,48.86
2017-12-17T11:57:28.107Z,50.57
2017-12-17T11:58:28.082Z,51.04
2017-12-17T11:59:28.025Z,53.59
2017-12-17T12:00:27.974Z,54.93
2017-12-17T12:01:27.938Z,48.29
2017-12-17T12:02:27.896Z,56.91
2017-12-17T12:03:27.868Z,56.53
2017-12-17T12:04:27.816Z,58.62
2017-12-17T12:05:27.789Z,49.24
2017-12-17T12:06:27.733Z,58.05
2017-12-17T12:07:27.680Z,57.95
2017-12-17T12:08:27.654Z,55.49
2017-12-17T12:09:27.598Z,56.63
2017-12-17T12:10:27.560Z,56.44
2017-12-17T12:11:27.512Z,58.05
2017-12-17T12:12:27.474Z,54.93
2017-12-17T12:13:27.459Z,53.41
2017-12-17T12:14:27.383Z,55.58
2017-12-17T12:15:27.351Z,56.53
2017-12-17T12:16:27.299Z,59.47
2017-12-17T12:17:27.265Z,56.91
2017-12-17T12:18:27.233Z,60.13
2017-12-17T12:19:27.176Z,58.24
2017-12-17T12:20:27.131Z,56.34
2017-12-17T12:21:27.088Z,54.93
2017-12-17T12:22:27.044Z,55.02
2017-12-17T12:23:27.005Z,53.41
2017-12-17T12:24:26.965Z,51.23
2017-12-17T12:25:26.919Z,53.50
2017-12-17T12:26:26.881Z,48.86
2017-12-17T12:27:26.837Z,39.01
2017-12-17T12:28:26.796Z,44.91
2017-12-17T12:29:26.747Z,40.08
2017-12-17T12:30:26.714Z,54.47
2017-12-17T12:31:26.672Z,48.70
2017-12-17T12:32:26.621Z,36.29
2017-12-17T12:33:26.599Z,50.97
2017-12-17T12:34:26.536Z,56.56
2017-12-17T12:35:26.500Z,64.81
2017-12-17T12:36:26.450Z,52.58
2017-12-17T12:37:26.423Z,58.74
2017-12-17T12:38:26.368Z,63.76
2017-12-17T12:39:26.349Z,60.06
2017-12-17T12:40:26.300Z,64.04
2017-12-17T12:41:26.244Z,64.04
2017-12-17T12:42:26.216Z,63.92
2017-12-17T12:43:26.190Z,59.75
2017-12-17T12:44:26.122Z,51.70
2017-12-17T12:45:26.086Z,60.89
2017-12-17T12:46:26.032Z,58.05
2017-12-17T12:47:25.994Z,57.86
2017-12-17T12:48:25.949Z,59.75
2017-12-17T12:49:25.910Z,54.83
2017-12-17T12:50:25.868Z,55.49
2017-12-17T12:51:25.824Z,55.68
2017-12-17T12:52:25.778Z,53.78
2017-12-17T12:53:25.772Z,55.49
2017-12-17T12:54:25.698Z,57.29
2017-12-17T12:55:25.671Z,56.15
2017-12-17T12:56:25.614Z,55.96
2017-12-17T12:57:25.567Z,59.66
2017-12-17T12:58:25.521Z,57.67
2017-12-17T12:59:25.498Z,52.46